Maersk Magellan — 9V6751 — position and weather

sailwx.info

Track history (hours):
 
Tides and Currents Weather Stations Pressure Air Temp Water Temp Dewpoint Dewpoint Depression Visibility Wind Speed Wind Dir Waves Ship Positions

Maersk Magellan

Last reported at 2016-May-27 09:33 UTC. Time now 2016-May-30 18:23 UTC.
Position N 40°16' W 073°38'.

Length 183 m; draft 8.4 m.

Type: Tanker. MMSI: 566549000.

Date/timePositionNaut miles runAvg speedWind from/ knotsBaromVisibWave heightAir tempDewpointWater temp
2016-May-27 09:33N 40°16' W 073°38'9 7.5
2016-May-27 08:20N 40°23' W 073°45'6 8.1
2016-May-27 07:33N 40°28' W 073°51'1111.5
2016-May-27 06:33N 40°36' W 074°02'0 0.1
2016-May-27 05:33N 40°36' W 074°02'0 0.1
2016-May-27 04:33N 40°36' W 074°02'0 0.0
2016-May-27 03:33N 40°36' W 074°02'0 0.0
2016-May-27 02:33N 40°36' W 074°02'0 0.0
2016-May-27 01:33N 40°36' W 074°02'0 0.2
2016-May-27 00:33N 40°36' W 074°02'0 0.1
2016-May-26 23:33N 40°36' W 074°02'0 0.0
2016-May-26 22:27N 40°36' W 074°02'0 0.0
2016-May-26 21:33N 40°36' W 074°02'0 0.0
2016-May-26 20:33N 40°36' W 074°02'7 7.1
2016-May-26 19:33N 40°30' W 073°56'10 9.6
2016-May-26 18:33N 40°29' W 073°44'1 0.5
2016-May-26 17:33N 40°29' W 073°43'80 8.6
2016-May-26 08:18N 40°45' W 072°00'54 8.9
2016-May-26 02:13N 41°30' W 071°21'913.4
2016-May-26 01:32N 41°39' W 071°19'8 0.2
2016-May-24 06:29N 41°47' W 071°22'0 0.0
2016-May-24 05:24N 41°47' W 071°22'0 0.0
2016-May-24 04:30N 41°47' W 071°22'0 0.0
2016-May-24 01:30N 41°47' W 071°22'0 0.0
2016-May-24 00:29N 41°47' W 071°22'0 0.0
2016-May-23 23:24N 41°47' W 071°22'0 0.0
2016-May-23 22:30N 41°47' W 071°22'0 0.0
2016-May-23 21:29N 41°47' W 071°22'0 0.0
2016-May-23 20:24N 41°47' W 071°22'0 0.0
2016-May-23 19:30N 41°47' W 071°22'1 0.8
2016-May-23 18:32N 41°46' W 071°22'8 7.9
2016-May-23 17:33N 41°39' W 071°19'1111.2
2016-May-23 16:33N 41°28' W 071°22'  
Track history (hours):
 
Tides and Currents Weather Stations Pressure Air Temp Water Temp Dewpoint Dewpoint Depression Visibility Wind Speed Wind Dir Waves Ship Positions

Maersk Magellan

Last reported at 2016-May-27 09:33 UTC. Time now 2016-May-30 18:23 UTC.
Position N 40°16' W 073°38'.

Length 183 m; draft 8.4 m.

Type: Tanker. MMSI: 566549000.

Date/timePositionNaut miles runAvg speedWind from/ knotsBaromVisibWave heightAir tempDewpointWater temp
2016-May-27 09:33N 40°16' W 073°38'9 7.5
2016-May-27 08:20N 40°23' W 073°45'6 8.1
2016-May-27 07:33N 40°28' W 073°51'1111.5
2016-May-27 06:33N 40°36' W 074°02'0 0.1
2016-May-27 05:33N 40°36' W 074°02'0 0.1
2016-May-27 04:33N 40°36' W 074°02'0 0.0
2016-May-27 03:33N 40°36' W 074°02'0 0.0
2016-May-27 02:33N 40°36' W 074°02'0 0.0
2016-May-27 01:33N 40°36' W 074°02'0 0.2
2016-May-27 00:33N 40°36' W 074°02'0 0.1
2016-May-26 23:33N 40°36' W 074°02'0 0.0
2016-May-26 22:27N 40°36' W 074°02'0 0.0
2016-May-26 21:33N 40°36' W 074°02'0 0.0
2016-May-26 20:33N 40°36' W 074°02'7 7.1
2016-May-26 19:33N 40°30' W 073°56'10 9.6
2016-May-26 18:33N 40°29' W 073°44'1 0.5
2016-May-26 17:33N 40°29' W 073°43'80 8.6
2016-May-26 08:18N 40°45' W 072°00'54 8.9
2016-May-26 02:13N 41°30' W 071°21'913.4
2016-May-26 01:32N 41°39' W 071°19'8 0.2
2016-May-24 06:29N 41°47' W 071°22'0 0.0
2016-May-24 05:24N 41°47' W 071°22'0 0.0
2016-May-24 04:30N 41°47' W 071°22'0 0.0
2016-May-24 01:30N 41°47' W 071°22'0 0.0
2016-May-24 00:29N 41°47' W 071°22'0 0.0
2016-May-23 23:24N 41°47' W 071°22'0 0.0
2016-May-23 22:30N 41°47' W 071°22'0 0.0
2016-May-23 21:29N 41°47' W 071°22'0 0.0
2016-May-23 20:24N 41°47' W 071°22'0 0.0
2016-May-23 19:30N 41°47' W 071°22'1 0.8
2016-May-23 18:32N 41°46' W 071°22'8 7.9
2016-May-23 17:33N 41°39' W 071°19'1111.2
2016-May-23 16:33N 41°28' W 071°22'  

Dump ship's entire track history